Time;durP1;ratioP1;P1;durP2;ratioP2;P2;SDS_P1;SDS_P2;PMS_P1;PMS_P2;Temp;Humidity;BMP_temperature;BMP_pressure;BME280_temperature;BME280_humidity;BME280_pressure;Samples;Min_cycle;Max_cycle;Signal;HPM_P1;HPM_P2
2021/04/05 00:02:18;;;;;;;1.63;1.33;;;4.20;98.00;;;;;;5115414;28;20895;-68
2021/04/05 00:04:44;;;;;;;2.17;2.03;;;4.20;98.00;;;;;;5112159;28;21171;-68
2021/04/05 00:07:11;;;;;;;1.40;1.10;;;4.10;98.00;;;;;;5115257;28;21024;-68
2021/04/05 00:09:41;;;;;;;1.40;1.30;;;4.10;98.00;;;;;;5112809;28;20516;-68
2021/04/05 00:12:09;;;;;;;1.70;1.50;;;4.10;98.00;;;;;;5115265;28;20451;-68
2021/04/05 00:14:37;;;;;;;1.20;1.00;;;4.00;98.00;;;;;;5112488;28;20460;-68
2021/04/05 00:17:05;;;;;;;1.63;1.57;;;4.10;98.00;;;;;;5115086;28;20955;-68
2021/04/05 00:19:31;;;;;;;1.20;1.07;;;4.20;98.00;;;;;;5112106;28;20513;-68
2021/04/05 00:21:58;;;;;;;1.90;1.80;;;4.10;98.00;;;;;;5114788;28;20496;-68
2021/04/05 00:24:25;;;;;;;1.60;1.60;;;4.20;98.00;;;;;;5112490;28;20594;-68
2021/04/05 00:26:51;;;;;;;1.60;1.33;;;4.30;98.00;;;;;;5113537;28;20488;-68
2021/04/05 00:29:19;;;;;;;1.20;1.10;;;4.40;98.00;;;;;;5112423;28;20545;-68
2021/04/05 00:31:46;;;;;;;1.50;1.40;;;4.30;98.00;;;;;;5114696;28;20577;-68
2021/04/05 00:34:13;;;;;;;1.20;1.00;;;4.10;98.00;;;;;;5111469;28;20448;-68
2021/04/05 00:36:39;;;;;;;1.20;1.00;;;4.00;98.00;;;;;;5113954;28;20874;-68
2021/04/05 00:39:06;;;;;;;1.53;1.13;;;4.00;98.00;;;;;;5112007;28;20458;-68
2021/04/05 00:41:34;;;;;;;1.30;1.10;;;4.20;98.00;;;;;;5113951;28;20879;-68
2021/04/05 00:44:00;;;;;;;1.77;1.10;;;4.10;98.00;;;;;;5111777;28;20460;-68
2021/04/05 00:46:28;;;;;;;1.40;1.20;;;4.10;98.00;;;;;;5114009;28;20528;-67
2021/04/05 00:48:55;;;;;;;1.30;1.30;;;4.10;98.00;;;;;;5111648;28;20494;-68
2021/04/05 00:51:23;;;;;;;1.20;1.20;;;4.00;98.00;;;;;;5114414;28;20475;-67
2021/04/05 00:53:50;;;;;;;1.20;1.10;;;3.90;98.00;;;;;;5112079;28;20479;-67
2021/04/05 00:56:19;;;;;;;2.67;1.23;;;3.90;98.00;;;;;;5114556;28;20448;-67
2021/04/05 00:58:47;;;;;;;1.77;1.27;;;3.70;98.00;;;;;;5111678;28;20482;-68
2021/04/05 01:01:20;;;;;;;2.67;1.63;;;3.70;98.00;;;;;;5114155;28;20940;-67
2021/04/05 01:03:48;;;;;;;1.20;1.00;;;3.50;98.00;;;;;;5111684;28;20460;-67
2021/04/05 01:06:17;;;;;;;2.00;1.30;;;3.70;98.00;;;;;;5114215;28;20481;-67
2021/04/05 01:08:44;;;;;;;1.40;1.20;;;3.90;98.00;;;;;;5111480;28;20459;-68
2021/04/05 01:11:12;;;;;;;1.77;1.67;;;3.90;98.00;;;;;;5114021;28;20875;-67
2021/04/05 01:13:39;;;;;;;1.20;1.00;;;4.00;98.00;;;;;;5111959;28;20492;-68
2021/04/05 01:16:06;;;;;;;4.77;1.77;;;4.10;98.00;;;;;;5113799;28;20485;-67
2021/04/05 01:18:33;;;;;;;1.73;1.50;;;3.90;98.00;;;;;;5113825;28;20458;-67
2021/04/05 01:21:01;;;;;;;1.83;1.77;;;3.80;98.00;;;;;;5111163;28;20546;-68
2021/04/05 01:23:29;;;;;;;1.70;1.13;;;3.70;98.00;;;;;;5113696;28;20456;-67
2021/04/05 01:25:56;;;;;;;1.30;1.20;;;3.90;98.00;;;;;;5111103;28;20985;-67
2021/04/05 01:28:23;;;;;;;2.23;1.60;;;3.90;98.00;;;;;;5113626;28;20460;-68
2021/04/05 01:30:51;;;;;;;1.70;1.60;;;3.90;98.00;;;;;;5110885;28;20451;-67
2021/04/05 01:33:20;;;;;;;1.30;1.30;;;3.80;98.00;;;;;;5113562;28;20513;-67
2021/04/05 01:35:49;;;;;;;1.20;1.00;;;3.60;98.00;;;;;;5110980;28;20481;-67
2021/04/05 01:38:19;;;;;;;1.83;1.33;;;3.50;98.00;;;;;;5113216;28;20456;-67
2021/04/05 01:40:49;;;;;;;1.87;1.70;;;3.60;98.00;;;;;;5110956;28;20802;-67
2021/04/05 01:43:15;;;;;;;4.33;2.63;;;3.60;98.00;;;;;;5113180;28;20801;-67
2021/04/05 01:45:42;;;;;;;2.03;1.20;;;3.50;98.00;;;;;;5110098;28;20486;-67
2021/04/05 01:48:09;;;;;;;2.80;1.73;;;3.20;98.00;;;;;;5113524;28;20461;-67
2021/04/05 01:50:37;;;;;;;1.20;1.13;;;3.30;98.00;;;;;;5110552;28;20456;-67
2021/04/05 01:53:06;;;;;;;1.30;1.20;;;3.40;98.00;;;;;;5112436;28;20452;-67
2021/04/05 01:55:36;;;;;;;1.90;1.60;;;3.30;98.00;;;;;;5109926;28;20532;-68
2021/04/05 01:58:05;;;;;;;1.50;1.40;;;3.30;98.00;;;;;;5112671;28;20479;-67
2021/04/05 02:00:35;;;;;;;1.20;1.00;;;3.10;98.00;;;;;;5109844;28;20470;-67
2021/04/05 02:03:05;;;;;;;2.23;1.50;;;3.10;98.00;;;;;;5113067;28;20466;-67
2021/04/05 02:05:33;;;;;;;1.20;1.10;;;2.90;98.00;;;;;;5110090;28;20466;-67
2021/04/05 02:08:00;;;;;;;1.40;1.33;;;3.10;98.00;;;;;;5112969;28;20459;-68
2021/04/05 02:10:27;;;;;;;1.40;1.33;;;3.20;98.00;;;;;;5110160;28;20496;-67
2021/04/05 02:12:55;;;;;;;3.87;2.63;;;3.20;98.00;;;;;;5112758;28;20542;-68
2021/04/05 02:15:24;;;;;;;2.00;1.50;;;3.30;98.00;;;;;;5110007;28;20455;-67
2021/04/05 02:17:52;;;;;;;1.40;1.40;;;3.40;98.00;;;;;;5112610;28;20513;-67
2021/04/05 02:20:19;;;;;;;3.13;1.40;;;3.50;98.00;;;;;;5110432;28;20455;-67
2021/04/05 02:22:50;;;;;;;1.40;1.30;;;3.50;98.00;;;;;;5112600;28;20821;-67
2021/04/05 02:25:18;;;;;;;1.30;1.30;;;3.40;98.00;;;;;;5110136;28;20455;-67
2021/04/05 02:27:45;;;;;;;1.40;1.10;;;3.20;98.00;;;;;;5112278;28;20516;-68
2021/04/05 02:30:22;;;;;;;1.50;1.30;;;3.10;98.00;;;;;;5110144;28;20455;-67
2021/04/05 02:32:52;;;;;;;1.80;1.37;;;3.00;98.00;;;;;;5112227;28;20546;-67
2021/04/05 02:35:19;;;;;;;8.50;3.10;;;3.00;98.00;;;;;;5110123;28;20934;-68
2021/04/05 02:37:48;;;;;;;2.13;1.83;;;3.20;98.00;;;;;;5112564;28;20953;-67
2021/04/05 02:40:16;;;;;;;3.10;1.73;;;3.10;98.00;;;;;;5109804;28;20473;-68
2021/04/05 02:42:42;;;;;;;1.20;1.10;;;3.00;98.00;;;;;;5112282;28;20489;-67
2021/04/05 02:45:10;;;;;;;1.40;1.37;;;2.90;98.00;;;;;;5109316;28;20451;-67
2021/04/05 02:47:38;;;;;;;1.67;1.43;;;2.70;98.00;;;;;;5110935;28;20901;-67
2021/04/05 02:50:07;;;;;;;1.20;1.10;;;2.80;98.00;;;;;;5109645;28;20455;-67
2021/04/05 02:52:35;;;;;;;1.93;1.63;;;2.80;98.00;;;;;;5112151;28;20953;-67
2021/04/05 02:55:04;;;;;;;3.20;2.37;;;2.80;98.00;;;;;;5109370;28;20966;-67
2021/04/05 02:57:34;;;;;;;1.30;1.13;;;2.90;98.00;;;;;;5111578;28;20519;-67
2021/04/05 03:00:01;;;;;;;1.80;1.57;;;2.90;98.00;;;;;;5107945;28;20459;-67
2021/04/05 03:02:28;;;;;;;1.30;1.23;;;2.90;98.00;;;;;;5111968;28;20558;-67
2021/04/05 03:04:55;;;;;;;2.47;1.50;;;2.90;98.00;;;;;;5109455;28;20478;-67
2021/04/05 03:07:25;;;;;;;1.30;1.10;;;2.70;98.00;;;;;;5111730;28;20487;-67
2021/04/05 03:09:51;;;;;;;1.20;1.00;;;2.60;98.00;;;;;;5109298;28;20451;-67
2021/04/05 03:12:18;;;;;;;1.93;1.30;;;2.50;98.00;;;;;;5111695;28;20816;-67
2021/04/05 03:14:45;;;;;;;1.20;1.00;;;2.40;98.00;;;;;;5108042;28;20455;-67
2021/04/05 03:17:12;;;;;;;1.60;1.40;;;2.40;98.00;;;;;;5111751;28;20451;-68
2021/04/05 03:19:41;;;;;;;1.20;1.00;;;2.50;98.00;;;;;;5109180;28;21299;-67
2021/04/05 03:22:08;;;;;;;1.70;1.47;;;2.60;98.00;;;;;;5111611;28;20454;-67
2021/04/05 03:24:37;;;;;;;1.20;1.10;;;2.70;98.00;;;;;;5109588;28;20491;-68
2021/04/05 03:27:05;;;;;;;1.20;1.10;;;2.80;98.00;;;;;;5111698;28;20514;-67
2021/04/05 03:29:35;;;;;;;1.30;1.30;;;2.80;98.00;;;;;;5109365;28;20451;-67
2021/04/05 03:32:04;;;;;;;1.47;1.43;;;2.70;98.00;;;;;;5111929;28;20451;-67
2021/04/05 03:34:34;;;;;;;1.20;1.00;;;2.80;98.00;;;;;;5109761;28;20462;-67
2021/04/05 03:37:07;;;;;;;1.20;1.00;;;2.80;98.00;;;;;;5110668;28;20960;-67
2021/04/05 03:39:34;;;;;;;1.20;1.00;;;2.80;98.00;;;;;;5109411;28;20800;-67
2021/04/05 03:42:06;;;;;;;1.20;1.00;;;2.90;98.00;;;;;;5111575;28;20454;-67
2021/04/05 03:44:49;;;;;;;1.20;1.00;;;3.00;98.00;;;;;;5109235;28;20487;-67
2021/04/05 03:47:21;;;;;;;1.20;1.10;;;3.00;98.00;;;;;;5110344;28;20502;-67
2021/04/05 03:49:52;;;;;;;1.20;1.10;;;3.00;98.00;;;;;;5108784;28;20512;-67
2021/04/05 03:52:24;;;;;;;1.60;1.47;;;3.00;98.00;;;;;;5111626;28;20512;-67
2021/04/05 03:54:53;;;;;;;1.43;1.20;;;3.00;98.00;;;;;;5108995;28;20916;-67
2021/04/05 03:57:24;;;;;;;1.20;1.00;;;2.80;98.00;;;;;;5111477;28;21032;-67
2021/04/05 03:59:54;;;;;;;1.20;1.00;;;2.80;98.00;;;;;;5109065;28;20478;-67
2021/04/05 04:02:23;;;;;;;1.73;1.30;;;2.80;98.00;;;;;;5111373;28;20514;-67
2021/04/05 04:04:56;;;;;;;1.20;1.03;;;3.00;98.00;;;;;;5108740;28;20469;-67
2021/04/05 04:07:30;;;;;;;1.20;1.00;;;2.80;98.00;;;;;;5111215;28;20485;-67
2021/04/05 04:09:58;;;;;;;1.83;1.60;;;2.70;98.00;;;;;;5110686;28;20454;-67
2021/04/05 04:12:27;;;;;;;1.40;1.17;;;2.60;98.00;;;;;;5115035;28;20863;-67
2021/04/05 04:14:57;;;;;;;1.83;1.57;;;2.70;98.00;;;;;;5112479;28;20508;-68
2021/04/05 04:17:24;;;;;;;1.20;1.00;;;2.70;98.00;;;;;;5114947;28;20501;-68
2021/04/05 04:19:52;;;;;;;1.20;1.00;;;2.50;98.00;;;;;;5112476;28;21078;-67
2021/04/05 04:22:19;;;;;;;1.20;0.90;;;2.40;98.00;;;;;;5115051;28;20457;-67
2021/04/05 04:24:46;;;;;;;1.77;1.20;;;2.40;98.00;;;;;;5110904;28;20507;-67
2021/04/05 04:27:15;;;;;;;4.60;3.67;;;2.40;98.00;;;;;;5115167;28;20485;-67
2021/04/05 04:29:52;;;;;;;1.40;1.20;;;2.50;98.00;;;;;;5112321;28;20953;-68
2021/04/05 04:32:18;;;;;;;1.20;1.10;;;2.50;98.00;;;;;;5114921;28;20990;-67
2021/04/05 04:34:45;;;;;;;5.37;3.00;;;2.60;98.00;;;;;;5112452;28;20470;-67
2021/04/05 04:37:12;;;;;;;1.67;1.10;;;2.60;98.00;;;;;;5114851;28;20477;-67
2021/04/05 04:39:39;;;;;;;1.20;1.00;;;2.60;98.00;;;;;;5112082;28;21008;-68
2021/04/05 04:42:07;;;;;;;13.23;1.50;;;2.80;98.00;;;;;;5114754;28;20450;-67
2021/04/05 04:44:34;;;;;;;1.20;1.00;;;2.80;98.00;;;;;;5112042;28;20458;-67
2021/04/05 04:47:01;;;;;;;1.20;1.00;;;2.90;98.00;;;;;;5114388;28;20583;-67
2021/04/05 04:49:28;;;;;;;1.20;1.00;;;3.00;98.00;;;;;;5112042;28;20527;-64
2021/04/05 04:51:54;;;;;;;1.30;1.20;;;3.10;98.00;;;;;;5114054;28;20458;-67
2021/04/05 04:54:25;;;;;;;1.20;1.10;;;3.10;98.00;;;;;;5111566;28;20450;-67
2021/04/05 04:56:52;;;;;;;1.30;1.30;;;2.90;98.00;;;;;;5114595;28;20993;-67
2021/04/05 04:59:20;;;;;;;1.37;1.30;;;2.90;98.00;;;;;;5111402;28;20454;-67
2021/04/05 05:01:47;;;;;;;1.50;1.33;;;3.00;98.00;;;;;;5113990;28;20455;-66
2021/04/05 05:04:19;;;;;;;1.37;1.10;;;2.90;98.00;;;;;;5111402;28;20451;-66
2021/04/05 05:06:46;;;;;;;2.07;1.30;;;2.80;98.00;;;;;;5113694;28;21028;-66
2021/04/05 05:09:13;;;;;;;1.30;1.23;;;2.80;98.00;;;;;;5111270;27;20452;-67
2021/04/05 05:11:41;;;;;;;1.57;1.20;;;2.70;98.00;;;;;;5114214;28;20452;-66
2021/04/05 05:14:07;;;;;;;1.20;1.10;;;2.80;98.00;;;;;;5111348;28;20447;-67
2021/04/05 05:16:36;;;;;;;3.50;2.03;;;2.80;98.00;;;;;;5114199;28;20952;-67
2021/04/05 05:19:03;;;;;;;1.80;1.30;;;2.80;98.00;;;;;;5108009;28;20615;-67
2021/04/05 05:21:33;;;;;;;1.97;1.53;;;2.90;98.00;;;;;;5109637;28;20459;-66
2021/04/05 05:24:03;;;;;;;1.40;1.10;;;3.00;98.00;;;;;;5111353;28;20533;-67
2021/04/05 05:26:33;;;;;;;1.47;1.10;;;3.20;98.00;;;;;;5111500;28;20479;-67
2021/04/05 05:29:04;;;;;;;1.37;1.37;;;3.20;98.00;;;;;;5111142;28;20544;-67
2021/04/05 05:31:31;;;;;;;2.23;1.37;;;3.50;98.00;;;;;;5111675;28;20478;-67
2021/04/05 05:33:57;;;;;;;1.20;1.00;;;3.60;98.00;;;;;;5113335;28;20822;-67
2021/04/05 05:36:24;;;;;;;1.57;1.30;;;3.40;98.00;;;;;;5109795;28;20454;-67
2021/04/05 05:38:53;;;;;;;3.67;1.60;;;3.40;98.00;;;;;;5113426;28;20466;-67
2021/04/05 05:41:25;;;;;;;2.10;1.97;;;3.50;98.00;;;;;;5110687;28;20517;-67
2021/04/05 05:43:57;;;;;;;1.20;1.00;;;3.50;98.00;;;;;;5113326;28;20534;-67
2021/04/05 05:46:35;;;;;;;1.30;1.30;;;3.70;98.00;;;;;;5109176;28;20491;-67
2021/04/05 05:49:17;;;;;;;1.30;1.20;;;3.80;98.00;;;;;;5112656;28;20455;-67
2021/04/05 05:51:59;;;;;;;1.20;1.00;;;4.00;98.00;;;;;;5112863;28;20505;-67
2021/04/05 05:54:39;;;;;;;1.83;1.20;;;4.10;98.00;;;;;;5110565;28;20932;-67
2021/04/05 05:57:12;;;;;;;1.40;1.20;;;4.30;98.00;;;;;;5113107;28;20460;-66
2021/04/05 05:59:47;;;;;;;1.20;1.20;;;4.30;98.00;;;;;;5110463;28;20453;-67
2021/04/05 06:02:29;;;;;;;1.40;1.40;;;4.30;98.00;;;;;;5112842;28;20458;-67
2021/04/05 06:05:06;;;;;;;1.40;1.17;;;4.50;98.00;;;;;;5110616;28;20957;-67
2021/04/05 06:07:42;;;;;;;1.20;1.00;;;4.70;98.00;;;;;;5112810;28;20479;-67
2021/04/05 06:10:17;;;;;;;1.30;1.30;;;4.90;98.00;;;;;;5110591;28;20450;-67
2021/04/05 06:12:51;;;;;;;1.20;1.00;;;5.00;98.00;;;;;;5113054;28;20480;-67
2021/04/05 06:15:19;;;;;;;1.73;1.73;;;5.10;98.00;;;;;;5110459;28;20542;-67
2021/04/05 06:17:59;;;;;;;1.30;1.00;;;5.30;98.00;;;;;;5112854;28;20459;-67
2021/04/05 06:20:31;;;;;;;1.20;1.00;;;5.40;97.40;;;;;;5110483;27;20456;-67
2021/04/05 06:23:14;;;;;;;1.40;1.10;;;5.50;97.40;;;;;;5112877;28;20487;-67
2021/04/05 06:25:51;;;;;;;1.20;1.00;;;5.80;95.30;;;;;;5110025;28;20456;-67
2021/04/05 06:28:25;;;;;;;2.30;2.03;;;6.00;94.90;;;;;;5112591;28;20460;-67
2021/04/05 06:31:06;;;;;;;1.20;1.10;;;6.20;94.80;;;;;;5110075;28;20461;-67
2021/04/05 06:33:34;;;;;;;1.20;1.10;;;6.30;94.70;;;;;;5112385;28;20552;-67
2021/04/05 06:36:30;;;;;;;1.37;1.20;;;6.50;93.30;;;;;;5109644;28;20955;-67
2021/04/05 06:39:04;;;;;;;1.20;0.97;;;6.60;93.00;;;;;;5112206;28;20481;-67
2021/04/05 06:42:01;;;;;;;1.73;1.57;;;6.80;93.20;;;;;;5110307;28;20450;-67
2021/04/05 06:44:42;;;;;;;1.63;1.33;;;6.90;92.10;;;;;;5109606;28;20447;-67
2021/04/05 06:47:40;;;;;;;1.20;1.10;;;7.00;91.90;;;;;;5111931;28;20491;-67
2021/04/05 06:50:20;;;;;;;1.27;1.07;;;7.10;89.60;;;;;;5109551;28;21132;-67
2021/04/05 06:53:24;;;;;;;1.20;1.20;;;7.30;89.50;;;;;;5112032;28;20454;-67
2021/04/05 06:55:55;;;;;;;1.20;1.03;;;7.40;89.00;;;;;;5108378;28;20937;-67
2021/04/05 06:58:47;;;;;;;3.50;1.53;;;7.50;89.30;;;;;;5110537;28;20505;-67
2021/04/05 07:01:25;;;;;;;1.20;1.00;;;7.60;89.30;;;;;;5108190;28;20460;-67
2021/04/05 07:04:15;;;;;;;1.90;1.63;;;7.70;87.70;;;;;;5111692;28;20457;-67
2021/04/05 07:06:49;;;;;;;2.03;1.53;;;7.80;87.50;;;;;;5112028;28;20480;-67
2021/04/05 07:09:33;;;;;;;1.20;1.07;;;7.90;88.40;;;;;;5109393;28;20539;-68
2021/04/05 07:12:42;;;;;;;1.20;1.00;;;7.90;86.70;;;;;;5111993;28;20460;-67
2021/04/05 07:15:25;;;;;;;1.20;1.00;;;8.10;87.90;;;;;;5109299;28;20548;-67
2021/04/05 07:18:03;;;;;;;1.30;1.10;;;8.10;86.80;;;;;;5111907;28;20487;-67
2021/04/05 07:20:40;;;;;;;1.67;1.60;;;8.20;86.60;;;;;;5109239;28;20886;-67
2021/04/05 07:23:18;;;;;;;2.00;1.40;;;8.30;85.80;;;;;;5111817;28;20455;-67
2021/04/05 07:25:58;;;;;;;1.20;1.00;;;8.30;85.70;;;;;;5109082;28;20501;-67
2021/04/05 07:28:34;;;;;;;1.20;1.00;;;8.30;85.10;;;;;;5111759;28;20493;-66
2021/04/05 07:31:15;;;;;;;1.93;1.47;;;8.40;85.80;;;;;;5108873;28;20470;-66
2021/04/05 07:33:44;;;;;;;1.47;1.27;;;8.50;85.30;;;;;;5111488;28;20465;-67
2021/04/05 07:36:18;;;;;;;1.30;1.30;;;8.50;85.20;;;;;;5107564;28;20537;-67
2021/04/05 07:38:54;;;;;;;1.40;1.17;;;8.60;85.80;;;;;;5111147;28;20538;-67
2021/04/05 07:41:30;;;;;;;2.10;1.70;;;8.60;86.60;;;;;;5108305;28;20486;-69
2021/04/05 07:44:16;;;;;;;2.07;1.87;;;8.70;85.20;;;;;;5111361;28;20455;-68
2021/04/05 07:46:50;;;;;;;1.50;1.20;;;8.70;85.60;;;;;;5114042;28;20534;-68
2021/04/05 07:49:22;;;;;;;1.20;1.00;;;8.70;85.80;;;;;;5111645;28;20465;-66
2021/04/05 07:51:53;;;;;;;4.30;1.30;;;8.80;86.60;;;;;;5114397;28;20951;-67
2021/04/05 07:54:24;;;;;;;1.93;1.57;;;8.80;85.60;;;;;;5112105;28;20450;-67
2021/04/05 07:57:00;;;;;;;1.40;1.10;;;8.90;84.70;;;;;;5114638;28;20495;-67
2021/04/05 07:59:46;;;;;;;1.60;1.30;;;9.10;85.50;;;;;;5112344;28;20544;-68
2021/04/05 08:02:37;;;;;;;1.50;1.17;;;9.30;85.90;;;;;;5115072;28;20461;-67
2021/04/05 08:05:28;;;;;;;1.20;1.00;;;9.50;84.70;;;;;;5112070;28;20494;-67
2021/04/05 08:08:26;;;;;;;1.87;1.10;;;9.60;83.00;;;;;;5114359;28;21009;-67
2021/04/05 08:11:01;;;;;;;1.20;1.10;;;9.70;82.90;;;;;;5110724;28;20466;-67
2021/04/05 08:13:39;;;;;;;4.10;1.30;;;9.80;82.80;;;;;;5114723;27;20879;-67
2021/04/05 08:16:15;;;;;;;1.20;1.00;;;9.90;83.90;;;;;;5111580;28;20466;-67
2021/04/05 08:18:51;;;;;;;1.20;0.90;;;10.10;82.40;;;;;;5114432;28;20465;-67
2021/04/05 08:21:21;;;;;;;1.20;1.00;;;10.20;82.10;;;;;;5111340;28;20450;-67
2021/04/05 08:23:56;;;;;;;1.40;1.20;;;10.30;80.40;;;;;;5113183;28;20465;-67
2021/04/05 08:26:31;;;;;;;1.30;1.20;;;10.30;79.90;;;;;;5111535;28;20474;-68
2021/04/05 08:29:06;;;;;;;1.20;1.00;;;10.30;80.50;;;;;;5114196;28;20498;-67
2021/04/05 08:31:50;;;;;;;1.40;1.40;;;10.50;81.00;;;;;;5111448;28;20474;-68
2021/04/05 08:34:30;;;;;;;1.30;1.30;;;10.70;82.00;;;;;;5114210;28;20447;-68
2021/04/05 08:37:07;;;;;;;1.20;1.10;;;10.90;80.50;;;;;;5113505;28;21258;-68
2021/04/05 08:39:44;;;;;;;1.40;1.23;;;11.10;82.60;;;;;;5111186;28;21061;-69
2021/04/05 08:42:17;;;;;;;2.03;1.73;;;11.20;80.90;;;;;;5113977;28;20454;-67
2021/04/05 08:44:50;;;;;;;1.20;1.00;;;11.30;79.60;;;;;;5111324;28;20492;-68
2021/04/05 08:47:22;;;;;;;1.20;0.90;;;11.40;79.80;;;;;;5113797;28;20482;-67
2021/04/05 08:49:50;;;;;;;1.60;1.10;;;11.50;80.60;;;;;;5111568;28;21018;-68
2021/04/05 08:52:22;;;;;;;1.20;1.00;;;11.70;78.70;;;;;;5113987;28;20841;-67
2021/04/05 08:54:50;;;;;;;1.30;1.13;;;11.70;79.40;;;;;;5111487;28;20447;-68
2021/04/05 08:57:23;;;;;;;1.50;1.37;;;11.90;79.90;;;;;;5112584;28;20924;-67
2021/04/05 09:00:00;;;;;;;1.20;1.00;;;11.90;79.90;;;;;;5111120;28;20458;-68
2021/04/05 09:02:32;;;;;;;1.20;0.93;;;12.10;78.80;;;;;;5113743;28;20485;-66
2021/04/05 09:05:02;;;;;;;1.20;1.10;;;12.10;78.40;;;;;;5111134;28;20988;-67
2021/04/05 09:07:53;;;;;;;1.50;1.40;;;12.20;78.20;;;;;;5113530;28;20486;-68
2021/04/05 09:10:24;;;;;;;1.30;1.13;;;12.40;78.30;;;;;;5111479;27;20547;-69
2021/04/05 09:12:51;;;;;;;1.93;1.90;;;12.60;77.80;;;;;;5111626;28;20458;-64
2021/04/05 09:15:53;;;;;;;2.63;1.67;;;12.60;77.30;;;;;;5111072;28;20774;-67
2021/04/05 09:18:49;;;;;;;1.20;1.00;;;12.70;77.20;;;;;;5110349;28;20457;-67
2021/04/05 09:21:42;;;;;;;1.40;1.23;;;12.90;76.60;;;;;;5110481;28;20493;-67
2021/04/05 09:24:41;;;;;;;1.30;1.13;;;13.10;76.30;;;;;;5113078;28;20863;-67
2021/04/05 09:27:49;;;;;;;1.57;1.30;;;13.10;75.90;;;;;;5111773;28;20506;-67
2021/04/05 09:30:46;;;;;;;1.50;1.20;;;13.20;74.50;;;;;;5110941;28;20459;-67
2021/04/05 09:33:34;;;;;;;1.40;1.30;;;13.20;76.50;;;;;;5086840;28;20511;-67
2021/04/05 09:36:27;;;;;;;1.20;1.10;;;13.10;74.80;;;;;;5110564;28;20460;-67
2021/04/05 09:39:08;;;;;;;1.50;1.20;;;13.00;74.00;;;;;;5105518;28;20456;-67
2021/04/05 09:42:00;;;;;;;1.20;1.10;;;13.00;75.00;;;;;;5110630;28;20452;-67
2021/04/05 09:45:10;;;;;;;1.30;1.10;;;13.00;75.10;;;;;;5112096;28;20499;-67
2021/04/05 09:48:07;;;;;;;1.20;1.10;;;13.00;69.10;;;;;;5112450;28;20498;-67
2021/04/05 09:50:48;;;;;;;1.83;1.00;;;13.00;69.50;;;;;;5110515;28;20490;-67
2021/04/05 09:53:35;;;;;;;1.27;1.17;;;12.90;69.20;;;;;;5112735;28;20465;-67
2021/04/05 09:56:07;;;;;;;1.20;0.90;;;12.90;69.80;;;;;;5110224;28;20466;-66
2021/04/05 09:58:38;;;;;;;1.20;1.00;;;12.90;71.00;;;;;;5112322;28;20480;-67
2021/04/05 10:01:08;;;;;;;1.50;1.10;;;13.00;71.30;;;;;;5110239;28;20540;-66
2021/04/05 10:03:41;;;;;;;1.40;1.30;;;13.00;70.10;;;;;;5112812;28;20458;-67
2021/04/05 10:06:11;;;;;;;2.90;1.10;;;13.00;68.70;;;;;;5110112;28;20566;-67
2021/04/05 10:08:39;;;;;;;1.20;1.10;;;13.00;69.40;;;;;;5112051;28;20449;-67
2021/04/05 10:11:06;;;;;;;1.20;1.10;;;12.90;69.30;;;;;;5110012;28;20993;-67
2021/04/05 10:13:35;;;;;;;1.20;1.00;;;12.80;70.00;;;;;;5112198;28;20466;-67
2021/04/05 10:16:04;;;;;;;2.17;1.80;;;12.80;69.90;;;;;;5110185;28;20491;-67
2021/04/05 10:18:33;;;;;;;1.20;1.00;;;12.80;69.70;;;;;;5111913;28;20550;-67
2021/04/05 10:21:00;;;;;;;1.50;1.30;;;12.70;70.90;;;;;;5109931;28;20512;-67
2021/04/05 10:23:30;;;;;;;1.20;1.07;;;12.70;70.10;;;;;;5112164;28;20465;-67
2021/04/05 10:26:00;;;;;;;1.20;0.90;;;12.60;69.00;;;;;;5109900;28;20979;-67
2021/04/05 10:28:31;;;;;;;1.20;1.20;;;12.60;70.40;;;;;;5110579;28;20521;-67
2021/04/05 10:30:59;;;;;;;1.30;1.20;;;12.50;70.60;;;;;;5109609;28;20448;-66
2021/04/05 10:33:30;;;;;;;1.40;1.20;;;12.50;71.00;;;;;;5111858;28;20447;-66
2021/04/05 10:36:02;;;;;;;1.20;1.10;;;12.60;70.20;;;;;;5109526;28;20515;-67
2021/04/05 10:38:30;;;;;;;1.30;1.10;;;12.60;70.00;;;;;;5111620;28;20445;-66
2021/04/05 10:40:58;;;;;;;1.20;1.10;;;12.60;71.10;;;;;;5109465;28;20487;-66
2021/04/05 10:43:29;;;;;;;1.50;1.40;;;12.70;70.90;;;;;;5111808;28;20454;-66
2021/04/05 10:45:58;;;;;;;1.20;1.00;;;12.70;71.30;;;;;;5109267;28;20459;-68
2021/04/05 10:48:37;;;;;;;1.40;1.10;;;12.80;71.40;;;;;;5111370;28;20481;-67
2021/04/05 10:51:08;;;;;;;1.20;1.00;;;12.90;71.40;;;;;;5109435;28;20460;-67
2021/04/05 10:53:39;;;;;;;1.20;1.07;;;12.90;70.80;;;;;;5111004;28;20514;-67
2021/04/05 10:56:08;;;;;;;1.20;1.07;;;13.00;69.80;;;;;;5107845;28;20459;-66
2021/04/05 10:58:44;;;;;;;1.20;0.90;;;13.20;69.90;;;;;;5110594;28;20473;-67
2021/04/05 11:01:13;;;;;;;1.20;1.00;;;13.10;64.80;;;;;;5109137;28;20448;-66
2021/04/05 11:03:43;;;;;;;2.53;1.40;;;13.10;67.30;;;;;;5110510;28;20459;-67
2021/04/05 11:06:15;;;;;;;1.20;1.10;;;13.10;66.90;;;;;;5108976;28;20519;-67
2021/04/05 11:08:42;;;;;;;1.63;1.27;;;13.00;65.70;;;;;;5110299;28;20454;-66
2021/04/05 11:11:15;;;;;;;1.30;1.20;;;13.00;64.80;;;;;;5108615;28;20603;-67
2021/04/05 11:13:47;;;;;;;1.20;1.00;;;12.90;67.10;;;;;;5110664;28;20449;-65
2021/04/05 11:16:17;;;;;;;1.20;1.00;;;12.90;69.20;;;;;;5108514;28;20455;-66
2021/04/05 11:18:48;;;;;;;2.33;1.03;;;13.00;68.20;;;;;;5108632;28;20474;-66
2021/04/05 11:21:17;;;;;;;1.40;1.20;;;12.90;67.70;;;;;;5109022;28;20855;-66
2021/04/05 11:23:45;;;;;;;1.60;1.20;;;12.90;67.90;;;;;;5110819;28;20461;-66
2021/04/05 11:26:13;;;;;;;1.20;1.00;;;12.90;65.60;;;;;;5108586;28;20550;-66
2021/04/05 11:28:41;;;;;;;1.20;1.00;;;12.80;66.70;;;;;;5110257;28;20949;-66
2021/04/05 11:31:11;;;;;;;1.20;1.00;;;12.80;66.90;;;;;;5108562;28;20449;-66
2021/04/05 11:33:47;;;;;;;1.40;1.17;;;12.90;66.10;;;;;;5110696;28;20483;-66
2021/04/05 11:36:14;;;;;;;1.20;1.00;;;12.80;65.30;;;;;;5108369;28;20461;-66
2021/04/05 11:38:45;;;;;;;1.20;1.00;;;12.60;66.50;;;;;;5110324;28;20468;-67
2021/04/05 11:41:16;;;;;;;2.80;1.30;;;12.60;66.30;;;;;;5108213;28;20483;-66
2021/04/05 11:43:48;;;;;;;2.73;1.10;;;12.50;65.30;;;;;;5110381;28;20459;-66
2021/04/05 11:46:17;;;;;;;1.20;1.00;;;12.50;65.90;;;;;;5108655;28;20762;-66
2021/04/05 11:48:44;;;;;;;1.93;1.40;;;12.60;67.60;;;;;;5110172;28;20542;-66
2021/04/05 11:51:13;;;;;;;2.63;1.30;;;12.60;67.70;;;;;;5108576;28;20454;-66
2021/04/05 11:53:48;;;;;;;1.20;1.00;;;12.70;68.10;;;;;;5110299;28;20498;-66
2021/04/05 11:56:27;;;;;;;1.57;1.13;;;12.70;70.70;;;;;;5108481;28;21017;-66
2021/04/05 11:59:05;;;;;;;2.03;1.60;;;12.70;73.30;;;;;;5110210;28;20460;-67
2021/04/05 12:01:37;;;;;;;2.30;1.37;;;12.60;74.10;;;;;;5107145;28;20494;-66
2021/04/05 12:04:14;;;;;;;4.80;1.83;;;12.70;74.80;;;;;;5110255;28;20457;-66
2021/04/05 12:06:44;;;;;;;1.53;1.30;;;12.50;75.00;;;;;;5108219;28;20536;-66
2021/04/05 12:09:16;;;;;;;1.40;1.10;;;12.50;75.10;;;;;;5110076;28;20486;-66
2021/04/05 12:11:48;;;;;;;1.83;1.23;;;12.40;74.50;;;;;;5106900;28;20454;-66
2021/04/05 12:14:20;;;;;;;1.67;1.43;;;12.40;75.10;;;;;;5110387;28;20504;-65
2021/04/05 12:16:50;;;;;;;1.70;1.53;;;12.40;74.70;;;;;;5107972;28;20995;-67
2021/04/05 12:19:24;;;;;;;2.13;1.67;;;12.40;75.20;;;;;;5108632;28;20457;-68
2021/04/05 12:21:52;;;;;;;1.20;1.00;;;12.40;75.40;;;;;;5107956;28;20462;-66
2021/04/05 12:24:26;;;;;;;1.70;1.40;;;12.30;74.70;;;;;;5109850;28;20561;-67
2021/04/05 12:26:58;;;;;;;1.50;1.40;;;12.30;75.80;;;;;;5107551;28;20991;-67
2021/04/05 12:29:26;;;;;;;1.40;1.20;;;12.30;75.50;;;;;;5109808;28;20940;-66
2021/04/05 12:31:57;;;;;;;1.70;1.30;;;12.20;76.20;;;;;;5111233;28;20978;-67
2021/04/05 12:34:29;;;;;;;1.20;1.00;;;12.10;76.80;;;;;;5113678;28;20452;-66
2021/04/05 12:37:01;;;;;;;1.50;1.13;;;11.90;77.70;;;;;;5111220;28;20458;-67
2021/04/05 12:39:32;;;;;;;1.70;1.20;;;11.90;79.20;;;;;;5112091;28;20531;-67
2021/04/05 12:42:08;;;;;;;1.30;1.20;;;11.90;78.60;;;;;;5111581;28;20462;-67
2021/04/05 12:44:37;;;;;;;1.57;1.57;;;11.80;79.00;;;;;;5113319;28;20461;-66
2021/04/05 12:47:07;;;;;;;1.70;1.50;;;11.70;80.30;;;;;;5109766;28;20480;-67
2021/04/05 12:49:36;;;;;;;1.60;1.30;;;11.70;81.70;;;;;;5113328;28;20459;-67
2021/04/05 12:52:05;;;;;;;1.20;1.20;;;11.70;81.90;;;;;;5111044;28;20453;-66
2021/04/05 12:54:38;;;;;;;1.50;1.23;;;11.70;82.50;;;;;;5113563;28;20455;-65
2021/04/05 12:57:07;;;;;;;2.70;1.20;;;11.50;83.00;;;;;;5111031;28;20451;-65
2021/04/05 12:59:35;;;;;;;1.57;1.20;;;11.50;83.00;;;;;;5113013;28;20489;-66
2021/04/05 13:02:12;;;;;;;1.80;1.50;;;11.50;83.10;;;;;;5111221;28;20877;-66
2021/04/05 13:04:45;;;;;;;2.17;1.40;;;11.40;83.30;;;;;;5113063;28;20453;-67
2021/04/05 13:07:16;;;;;;;1.33;1.27;;;11.40;83.20;;;;;;5110366;28;20502;-67
2021/04/05 13:09:48;;;;;;;2.40;1.30;;;11.40;83.20;;;;;;5112750;28;20526;-67
2021/04/05 13:12:20;;;;;;;1.67;1.60;;;11.30;83.40;;;;;;5112922;28;20444;-67
2021/04/05 13:14:51;;;;;;;1.70;1.30;;;11.30;83.90;;;;;;5112261;28;20869;-67
2021/04/05 13:17:26;;;;;;;1.20;1.10;;;11.20;83.90;;;;;;5111325;28;20455;-68
2021/04/05 13:20:00;;;;;;;1.50;1.30;;;11.20;84.20;;;;;;5110684;28;20492;-68
2021/04/05 13:22:30;;;;;;;1.30;1.13;;;11.20;84.70;;;;;;5112210;28;20455;-67